GW0701 Weather Reports


Display with metric or nautical units.
time (UTC)temp
F
wind
direction
speed
MPH
gust
MPH
rain 1hr
in
rain 24hr
in
rain mn
in
humidity
%
barometer
mb
20240623123254 73 323 5.0 8.0 0.00 0.00 0.00 85 1010.7
20240623122754 73 273 2.0 2.0 0.00 0.00 0.00 86 1010.4
20240623122252 73 49 2.0 5.0 0.00 0.00 0.00 86 1010.6
20240623121750 73 245 0.0 1.0 0.00 0.00 0.00 86 1010.6
20240623121250 73 334 4.0 5.0 0.00 0.00 0.00 86 1010.3
20240623120749 73 7 3.0 5.0 0.00 0.00 0.00 87 1010.4
20240623120248 73 241 2.0 3.0 0.00 0.00 0.00 87 1010.2
20240623115747 73 249 3.0 3.0 0.00 0.00 0.00 87 1010.2
20240623115246 72 235 0.0 0.0 0.00 0.00 0.00 88 1010.2
20240623114744 72 253 3.0 5.0 0.00 0.00 0.00 89 1010.3
20240623114242 71 257 1.0 2.0 0.00 0.00 0.00 91 1010.1
20240623113742 71 289 2.0 2.0 0.00 0.00 0.00 92 1010.1
20240623113241 71 267 1.0 1.0 0.00 0.00 0.00 92 1010.1
20240623112739 71 242 3.0 7.0 0.00 0.00 0.00 93 1009.9
20240623112237 71 228 1.0 1.0 0.00 0.00 0.00 93 1009.8
20240623111736 71 252 1.0 1.0 0.00 0.00 0.00 93 1009.8
20240623111234 71 254 1.0 1.0 0.00 0.00 0.00 93 1010.0
20240623110733 71 289 4.0 6.0 0.00 0.00 0.00 93 1009.9
20240623110231 71 261 1.0 2.0 0.00 0.00 0.00 94 1009.6
20240623105729 71 207 3.0 5.0 0.00 0.00 0.00 94 1009.7
20240623105228 71 282 2.0 2.0 0.00 0.00 0.00 94 1009.8
20240623104728 71 266 0.0 0.0 0.00 0.00 0.00 94 1009.7
20240623104227 71 233 1.0 1.0 0.00 0.00 0.00 94 1009.7
20240623103726 71 272 1.0 1.0 0.00 0.00 0.00 94 1009.7
20240623103224 71 340 1.0 2.0 0.00 0.00 0.00 94 1009.7
20240623102724 71 241 0.0 1.0 0.00 0.00 0.00 93 1009.4
20240623102222 71 261 2.0 3.0 0.00 0.00 0.00 93 1009.5
20240623101721 71 263 1.0 2.0 0.00 0.00 0.00 93 1009.4
20240623101219 71 214 0.0 1.0 0.00 0.00 0.00 92 1009.4
20240623100718 71 291 1.0 1.0 0.00 0.00 0.00 92 1009.2
20240623100217 71 262 0.0 1.0 0.00 0.00 0.00 92 1009.0
20240623095716 72 230 2.0 2.0 0.00 0.00 0.00 91 1009.0
20240623095215 72 311 1.0 2.0 0.00 0.00 0.00 91 1008.9
20240623094713 72 260 2.0 2.0 0.00 0.00 0.00 91 1009.0
20240623094212 72 272 2.0 3.0 0.00 0.00 0.00 91 1009.0
20240623093710 72 239 0.0 0.0 0.00 0.00 0.00 92 1009.0
20240623093209 72 249 0.0 0.0 0.00 0.00 0.00 91 1009.0
20240623092708 72 250 0.0 1.0 0.00 0.00 0.00 92 1008.9
20240623092208 72 322 3.0 3.0 0.00 0.00 0.00 92 1008.8
20240623091706 72 193 0.0 0.0 0.00 0.00 0.00 92 1008.9
20240623091205 72 304 1.0 2.0 0.00 0.00 0.00 93 1008.8
20240623090703 72 242 2.0 2.0 0.00 0.00 0.00 93 1008.8
20240623090202 72 260 1.0 1.0 0.00 0.00 0.00 93 1008.7
20240623085701 72 194 0.0 1.0 0.00 0.00 0.00 93 1008.6
20240623085157 72 253 1.0 1.0 0.00 0.00 0.00 93 1008.8
20240623084655 72 260 0.0 1.0 0.00 0.00 0.00 93 1008.6
20240623084152 73 257 0.0 0.0 0.00 0.00 0.00 93 1008.7
20240623083650 73 281 0.0 0.0 0.00 0.00 0.00 92 1008.7
20240623083147 73 238 0.0 0.0 0.00 0.00 0.00 92 1008.5
20240623082642 73 269 2.0 2.0 0.00 0.00 0.00 91 1008.6
20240623082142 73 264 0.0 1.0 0.00 0.00 0.00 92 1008.5
20240623081638 73 230 0.0 0.0 0.00 0.00 0.00 92 1008.7
20240623080418 73 265 0.0 1.0 0.00 0.00 0.00 93 1008.4
20240623075916 74 260 1.0 2.0 0.00 0.00 0.00 92 1008.4
20240623075415 74 257 1.0 1.0 0.00 0.00 0.00 92 1008.5
20240623074913 74 233 2.0 2.0 0.00 0.00 0.00 92 1008.4
20240623074411 74 264 1.0 2.0 0.00 0.00 0.00 92 1008.3
20240623073911 74 269 1.0 2.0 0.00 0.00 0.00 92 1008.4
20240623073409 74 264 2.0 2.0 0.00 0.00 0.00 92 1008.2
20240623072907 74 245 3.0 3.0 0.00 0.00 0.00 92 1008.5
20240623072406 74 271 3.0 3.0 0.00 0.00 0.00 92 1008.6
20240623071905 74 251 2.0 2.0 0.00 0.00 0.00 92 1008.5
20240623071403 74 264 1.0 1.0 0.00 0.00 0.00 92 1008.4
20240623070902 74 251 0.0 1.0 0.00 0.00 0.00 92 1008.4
20240623070400 74 264 2.0 2.0 0.00 0.00 0.00 92 1008.2
20240623065900 74 256 2.0 2.0 0.00 0.00 0.00 92 1008.1
20240623065359 74 264 3.0 3.0 0.00 0.00 0.00 92 1008.0
20240623064857 74 243 1.0 1.0 0.00 0.00 0.00 92 1008.1
20240623064356 74 261 1.0 1.0 0.00 0.00 0.00 92 1008.4
20240623063854 74 249 2.0 2.0 0.00 0.00 0.00 92 1008.1
20240623063353 74 258 1.0 1.0 0.00 0.00 0.00 92 1008.0
20240623062851 74 250 1.0 1.0 0.00 0.00 0.00 92 1007.9
20240623062350 74 235 1.0 2.0 0.00 0.00 0.00 92 1007.9
20240623061848 74 236 2.0 3.0 0.00 0.00 0.00 92 1007.9
20240623061348 74 247 3.0 3.0 0.00 0.00 0.00 92 1008.0
20240623060846 74 276 4.0 6.0 0.00 0.00 0.00 92 1008.1
20240623060345 74 248 2.0 2.0 0.00 0.00 0.00 92 1008.3
20240623055844 74 251 2.0 2.0 0.00 0.00 0.00 92 1008.3
20240623055342 74 244 0.0 0.0 0.00 0.00 0.00 92 1008.1
20240623054842 74 236 0.0 0.0 0.00 0.00 0.00 92 1008.2
20240623054341 74 251 2.0 2.0 0.00 0.00 0.00 92 1008.0
20240623053840 74 245 1.0 1.0 0.00 0.00 0.00 92 1007.8
20240623053339 74 238 1.0 2.0 0.00 0.00 0.00 91 1008.0
20240623052838 74 230 2.0 2.0 0.00 0.00 0.00 91 1008.0
20240623052336 74 272 3.0 5.0 0.00 0.00 0.00 91 1008.0
20240623051834 74 260 1.0 1.0 0.00 0.00 0.00 91 1008.1
20240623051333 75 293 3.0 3.0 0.00 0.00 0.00 92 1007.8
20240623050832 75 257 3.0 3.0 0.00 0.00 0.00 92 1008.1
20240623050330 75 252 3.0 3.0 0.00 0.00 0.00 91 1008.2
20240623045830 75 271 1.0 1.0 0.04 0.00 0.00 91 1008.4
20240623045328 76 211 4.0 5.0 0.04 0.00 0.00 90 1008.2
20240623044827 76 237 2.0 2.0 0.00 0.00 0.00 90 1007.8
20240623044327 77 247 1.0 2.0 0.00 0.00 0.00 90 1008.1
20240623043825 77 282 4.0 6.0 0.00 0.00 0.00 89 1007.9
20240623043323 78 294 4.0 6.0 0.00 0.00 0.00 87 1007.5
20240623042819 78 287 6.0 8.0 0.00 0.00 0.00 87 1007.7
20240623042317 78 246 2.0 2.0 0.00 0.00 0.00 86 1007.8
20240623041814 78 255 3.0 6.0 0.00 0.00 0.00 83 1007.6
20240623041314 80 257 4.0 5.0 0.00 0.00 0.00 80 1006.9
20240623040812 82 284 7.0 10.0 0.00 0.00 0.00 79 1007.0
20240623040311 84 258 4.0 6.0 0.00 0.00 0.00 74 1007.1
20240623035809 85 274 7.0 11.0 0.00 0.00 0.00 71 1007.1
20240623035306 85 268 8.0 10.0 0.00 0.00 0.00 70 1007.0
20240623034805 85 239 3.0 5.0 0.00 0.00 0.00 69 1006.4
20240623034305 85 233 3.0 3.0 0.00 0.00 0.00 70 1005.9
20240623033804 86 251 4.0 5.0 0.00 0.00 0.00 69 1005.9
20240623033304 85 184 4.0 6.0 0.00 0.00 0.00 70 1005.7
20240623032804 85 216 3.0 3.0 0.00 0.00 0.00 70 1005.9
20240623032305 86 240 5.0 7.0 0.00 0.00 0.00 69 1005.7
20240623031802 85 245 5.0 7.0 0.00 0.00 0.00 70 1005.6
20240623031301 85 220 4.0 6.0 0.00 0.00 0.00 70 1005.8
20240623030800 85 230 5.0 6.0 0.00 0.00 0.00 69 1005.7
20240623030300 86 221 5.0 6.0 0.00 0.00 0.00 69 1005.7
20240623025759 85 242 4.0 6.0 0.00 0.00 0.00 69 1005.7
20240623025257 86 223 6.0 8.0 0.00 0.00 0.00 69 1005.7
20240623024755 86 247 4.0 5.0 0.00 0.00 0.00 69 1006.1
20240623024253 86 206 4.0 6.0 0.00 0.00 0.00 69 1006.0
20240623023752 86 213 5.0 6.0 0.00 0.00 0.00 69 1005.8
20240623023253 86 205 3.0 6.0 0.00 0.00 0.00 69 1006.3
20240623022752 86 227 3.0 5.0 0.00 0.00 0.00 68 1006.1
20240623022251 86 227 5.0 7.0 0.00 0.00 0.00 68 1005.8
20240623021750 86 220 4.0 5.0 0.00 0.00 0.00 68 1005.8
20240623021249 86 201 3.0 5.0 0.00 0.00 0.00 67 1005.7
20240623020747 86 235 5.0 6.0 0.00 0.00 0.00 68 1006.0
20240623020246 86 195 5.0 6.0 0.00 0.00 0.00 67 1006.0
20240623015746 87 205 4.0 6.0 0.00 0.00 0.00 67 1005.9
20240623015244 87 235 5.0 6.0 0.00 0.00 0.00 67 1006.2
20240623014742 87 213 5.0 6.0 0.00 0.00 0.00 67 1006.2
20240623014240 87 216 6.0 8.0 0.00 0.00 0.00 67 1006.3
20240623013738 87 257 4.0 5.0 0.00 0.00 0.00 67 1006.6
20240623013236 87 200 3.0 3.0 0.00 0.00 0.00 67 1006.4
20240623012736 87 201 5.0 6.0 0.00 0.00 0.00 67 1006.6
20240623012234 87 223 3.0 5.0 0.00 0.00 0.00 67 1006.7
20240623011733 87 234 3.0 3.0 0.00 0.00 0.00 67 1006.6
20240623011232 87 199 5.0 5.0 0.00 0.00 0.00 67 1006.8
20240623010732 87 236 5.0 7.0 0.00 0.00 0.00 66 1006.7
20240623010230 87 235 5.0 7.0 0.00 0.00 0.00 67 1007.0
20240623005730 88 200 5.0 7.0 0.00 0.00 0.00 66 1007.1
20240623005228 88 214 3.0 3.0 0.00 0.00 0.00 66 1006.8
20240623004727 88 212 3.0 5.0 0.00 0.00 0.00 66 1006.9
20240623004225 88 218 2.0 3.0 0.00 0.00 0.00 66 1006.9
20240623003725 88 206 3.0 5.0 0.00 0.00 0.00 65 1007.0
20240623003224 88 206 3.0 3.0 0.00 0.00 0.00 65 1007.0
20240623002722 88 216 3.0 3.0 0.00 0.00 0.00 65 1006.8
20240623002221 88 264 3.0 5.0 0.00 0.00 0.00 65 1007.0
20240623001719 89 251 3.0 5.0 0.00 0.00 0.00 64 1006.7
20240623001218 89 221 3.0 3.0 0.00 0.00 0.00 64 1006.7
20240623000717 89 233 5.0 6.0 0.00 0.00 0.00 63 1006.8
20240623000219 90 192 3.0 5.0 0.00 0.00 0.00 64 1007.0
20240622235715 90 203 6.0 8.0 0.00 0.00 0.00 61 1006.9
20240622235214 90 212 6.0 8.0 0.00 0.00 0.00 61 1007.0
20240622234712 89 207 6.0 8.0 0.00 0.00 0.00 62 1007.1
20240622234211 90 235 7.0 9.0 0.00 0.00 0.00 62 1007.2
20240622233710 91 232 5.0 6.0 0.00 0.00 0.00 60 1007.2
20240622233210 91 200 5.0 8.0 0.00 0.00 0.00 61 1007.3
20240622232708 91 215 5.0 7.0 0.00 0.00 0.00 60 1007.5
20240622232207 91 237 3.0 5.0 0.00 0.00 0.00 61 1007.4
20240622231706 91 261 4.0 5.0 0.00 0.00 0.00 60 1007.6
20240622231204 91 226 5.0 6.0 0.00 0.00 0.00 60 1007.8
20240622230702 91 241 3.0 3.0 0.00 0.00 0.00 60 1007.8
20240622230200 91 203 10.0 15.0 0.00 0.00 0.00 59 1007.7
20240622225659 91 229 6.0 8.0 0.00 0.00 0.00 60 1007.6
20240622225158 91 196 6.0 10.0 0.00 0.00 0.00 60 1007.6
20240622224657 92 203 11.0 14.0 0.00 0.00 0.00 59 1007.7
20240622224156 92 205 3.0 5.0 0.00 0.00 0.00 60 1007.7
20240622223655 91 210 4.0 6.0 0.00 0.00 0.00 60 1007.8
20240622223155 91 222 6.0 7.0 0.00 0.00 0.00 59 1007.9
20240622222654 91 232 7.0 8.0 0.00 0.00 0.00 59 1008.1
20240622222153 91 237 4.0 5.0 0.00 0.00 0.00 59 1008.2
20240622221653 91 220 5.0 6.0 0.00 0.00 0.00 59 1007.9
20240622221152 91 237 4.0 6.0 0.00 0.00 0.00 60 1008.0
20240622220652 91 184 5.0 6.0 0.00 0.00 0.00 60 1008.1
20240622220149 91 230 5.0 7.0 0.00 0.00 0.00 61 1008.2
20240622215649 91 199 7.0 9.0 0.00 0.00 0.00 59 1008.3
20240622215147 92 233 11.0 14.0 0.00 0.00 0.00 60 1008.3
20240622214646 91 193 6.0 7.0 0.00 0.00 0.00 61 1008.2
20240622214146 91 201 7.0 8.0 0.00 0.00 0.00 60 1008.3
20240622213644 92 245 5.0 7.0 0.00 0.00 0.00 59 1008.1
20240622213143 91 176 9.0 13.0 0.00 0.00 0.00 59 1008.1
20240622212642 91 241 5.0 6.0 0.00 0.00 0.00 62 1008.4
20240622212142 90 181 6.0 8.0 0.00 0.00 0.00 61 1008.4
20240622211640 90 229 5.0 6.0 0.00 0.00 0.00 61 1008.7
20240622211137 90 210 7.0 11.0 0.00 0.00 0.00 61 1008.7
20240622210637 91 203 12.0 16.0 0.00 0.00 0.00 60 1008.7
20240622210135 91 214 7.0 9.0 0.00 0.00 0.00 60 1008.7
20240622205634 91 180 9.0 11.0 0.00 0.00 0.00 59 1008.7
20240622205132 91 164 5.0 7.0 0.00 0.00 0.00 60 1009.0
20240622204631 90 182 7.0 9.0 0.00 0.00 0.00 61 1008.9
20240622204131 92 194 10.0 13.0 0.00 0.00 0.00 59 1009.0
20240622203628 91 203 7.0 10.0 0.00 0.00 0.00 60 1009.1
20240622203127 91 220 5.0 6.0 0.00 0.00 0.00 61 1009.2
20240622202625 91 214 5.0 6.0 0.00 0.00 0.00 61 1009.0
20240622202124 91 243 7.0 10.0 0.00 0.00 0.00 59 1009.2
20240622201621 91 169 5.0 6.0 0.00 0.00 0.00 61 1009.1
20240622201121 91 200 7.0 9.0 0.00 0.00 0.00 59 1009.3
20240622200620 90 233 9.0 13.0 0.00 0.00 0.00 60 1009.4
20240622200118 90 193 6.0 8.0 0.00 0.00 0.00 60 1009.4
20240622195617 90 206 5.0 9.0 0.00 0.00 0.00 61 1009.3
20240622195115 90 239 4.0 5.0 0.00 0.00 0.00 62 1009.5
20240622194615 89 210 4.0 6.0 0.00 0.00 0.00 60 1009.5
20240622194113 90 243 5.0 7.0 0.00 0.00 0.00 62 1009.4
20240622193611 90 222 7.0 10.0 0.00 0.00 0.00 61 1009.8
20240622193110 90 220 4.0 8.0 0.00 0.00 0.00 62 1009.6
20240622192608 89 213 3.0 5.0 0.00 0.00 0.00 61 1009.7
20240622192107 89 212 7.0 8.0 0.00 0.00 0.00 62 1009.7
20240622191607 89 210 7.0 8.0 0.00 0.00 0.00 61 1009.7
20240622191106 89 201 11.0 17.0 0.00 0.00 0.00 61 1009.9
20240622190605 89 236 5.0 10.0 0.00 0.00 0.00 63 1009.9
20240622190104 90 220 4.0 6.0 0.00 0.00 0.00 60 1009.7
20240622185601 89 180 7.0 11.0 0.00 0.00 0.00 60 1009.9
20240622185101 89 235 7.0 10.0 0.00 0.00 0.00 61 1009.8
20240622184559 89 259 3.0 3.0 0.00 0.00 0.00 63 1009.9
20240622184057 89 241 3.0 3.0 0.00 0.00 0.00 63 1010.0
20240622183556 89 186 3.0 6.0 0.00 0.00 0.00 63 1009.9
20240622183055 89 199 10.0 11.0 0.00 0.00 0.00 62 1010.1
20240622182554 89 196 9.0 10.0 0.00 0.00 0.00 62 1010.1
20240622182053 88 222 4.0 6.0 0.00 0.00 0.00 62 1010.2
20240622181551 88 193 5.0 7.0 0.00 0.00 0.00 63 1010.3
20240622181050 87 176 7.0 11.0 0.00 0.00 0.00 62 1010.5
20240622180549 87 177 7.0 9.0 0.00 0.00 0.00 63 1010.6
20240622180047 86 203 6.0 9.0 0.00 0.00 0.00 64 1010.6
20240622175544 86 188 3.0 5.0 0.00 0.00 0.00 65 1010.8
20240622175043 86 183 10.0 13.0 0.00 0.00 0.00 64 1010.9
20240622174541 86 236 8.0 11.0 0.00 0.00 0.00 65 1011.0
20240622174040 87 267 6.0 6.0 0.00 0.00 0.00 64 1011.1
20240622173538 86 221 7.0 8.0 0.00 0.00 0.00 64 1011.1
20240622173036 86 214 4.0 5.0 0.00 0.00 0.00 64 1011.2
20240622172534 86 212 6.0 9.0 0.00 0.00 0.00 65 1011.7
20240622172033 85 223 4.0 5.0 0.00 0.00 0.00 67 1011.3
20240622171532 86 220 6.0 7.0 0.00 0.00 0.00 64 1011.3
20240622171031 86 217 4.0 5.0 0.00 0.00 0.00 64 1011.6
20240622170528 86 207 3.0 3.0 0.00 0.00 0.00 64 1011.6
20240622170026 86 242 4.0 5.0 0.00 0.00 0.00 63 1011.6
20240622165525 86 238 3.0 3.0 0.00 0.00 0.00 65 1011.8
20240622165025 87 193 5.0 6.0 0.00 0.00 0.00 65 1011.6
20240622164523 86 211 5.0 6.0 0.00 0.00 0.00 66 1011.8
20240622164023 85 217 5.0 7.0 0.00 0.00 0.00 67 1011.7
20240622163522 85 255 5.0 6.0 0.00 0.00 0.00 66 1011.7
20240622163021 85 195 3.0 3.0 0.00 0.00 0.00 68 1011.9
20240622162520 84 211 2.0 3.0 0.00 0.00 0.00 67 1011.9
20240622162018 84 221 3.0 5.0 0.00 0.00 0.00 67 1012.0
20240622161517 84 191 7.0 9.0 0.00 0.00 0.00 67 1012.0
20240622161016 84 173 6.0 8.0 0.00 0.00 0.00 66 1012.1
20240622160515 84 205 9.0 11.0 0.00 0.00 0.00 66 1012.2
20240622160014 84 215 6.0 7.0 0.00 0.00 0.00 66 1012.1
20240622155510 84 235 6.0 7.0 0.00 0.00 0.00 67 1012.0
20240622155011 84 235 7.0 8.0 0.00 0.00 0.00 68 1011.8
20240622154510 84 194 6.0 8.0 0.00 0.00 0.00 68 1012.0
20240622154008 84 280 5.0 7.0 0.00 0.00 0.00 68 1012.2
20240622153505 84 188 7.0 8.0 0.00 0.00 0.00 69 1012.1
20240622153005 83 171 7.0 9.0 0.00 0.00 0.00 70 1012.4
20240622152502 83 179 11.0 11.0 0.00 0.00 0.00 69 1012.4
20240622152000 82 227 3.0 5.0 0.00 0.00 0.00 70 1012.4
20240622151459 81 198 7.0 10.0 0.00 0.00 0.00 72 1012.6
20240622150959 81 218 5.0 6.0 0.00 0.00 0.00 72 1012.7
20240622150459 81 250 7.0 8.0 0.00 0.00 0.00 72 1012.6
20240622145957 81 240 4.0 6.0 0.00 0.00 0.00 73 1012.7
20240622145456 81 174 4.0 7.0 0.00 0.00 0.00 73 1012.9
20240622144955 80 162 6.0 9.0 0.00 0.00 0.00 73 1013.0
20240622144454 81 236 3.0 5.0 0.00 0.00 0.00 73 1013.0
20240622143952 81 206 4.0 5.0 0.00 0.00 0.00 74 1013.5
20240622143451 80 197 4.0 5.0 0.00 0.00 0.00 74 1013.3
20240622142949 80 255 4.0 6.0 0.00 0.00 0.00 73 1013.3
20240622142448 80 222 5.0 6.0 0.00 0.00 0.00 74 1013.4
20240622141947 79 231 3.0 5.0 0.00 0.00 0.00 75 1013.5
20240622141446 79 231 5.0 7.0 0.00 0.00 0.00 75 1013.4
20240622140945 79 209 3.0 5.0 0.00 0.00 0.00 75 1013.4
20240622140442 79 186 7.0 9.0 0.00 0.00 0.00 75 1013.5
20240622135939 79 221 3.0 5.0 0.00 0.00 0.00 76 1013.8
20240622135438 79 173 2.0 3.0 0.00 0.00 0.00 75 1013.7
20240622134938 79 215 2.0 2.0 0.00 0.00 0.00 75 1013.8
20240622134436 79 235 2.0 3.0 0.00 0.00 0.00 75 1013.7
20240622133935 79 211 3.0 3.0 0.00 0.00 0.00 74 1013.6
20240622133435 80 224 8.0 10.0 0.00 0.00 0.00 73 1013.7
20240622132934 80 201 3.0 3.0 0.00 0.00 0.00 74 1013.6
20240622132434 80 227 3.0 5.0 0.00 0.00 0.00 74 1013.7
20240622131932 79 185 8.0 8.0 0.00 0.00 0.00 74 1013.6
20240622131430 79 197 5.0 6.0 0.00 0.00 0.00 74 1013.6
20240622130929 79 224 6.0 9.0 0.00 0.00 0.00 74 1013.6
20240622130428 79 229 5.0 8.0 0.00 0.00 0.00 74 1013.7
20240622125926 79 227 3.0 6.0 0.00 0.00 0.00 74 1013.7
20240622125424 80 193 5.0 7.0 0.00 0.00 0.00 73 1013.8
20240622124924 80 163 9.0 15.0 0.00 0.00 0.00 72 1013.7
20240622124423 80 245 5.0 8.0 0.00 0.00 0.00 73 1013.8
20240622123923 80 223 2.0 2.0 0.00 0.00 0.00 72 1014.0
20240622123421 79 196 4.0 6.0 0.00 0.00 0.00 74 1014.3